Time;durP1;ratioP1;P1;durP2;ratioP2;P2;SDS_P1;SDS_P2;PMS_P1;PMS_P2;Temp;Humidity;BMP_temperature;BMP_pressure;BME280_temperature;BME280_humidity;BME280_pressure;Samples;Min_cycle;Max_cycle;Signal;HPM_P1;HPM_P2
2022/07/11 00:00:01;;;;;;;1.60;1.10;;;;;;;13.39;94.86;99193.81;4121494;28;20026;-72
2022/07/11 00:02:02;;;;;;;1.42;1.10;;;;;;;13.36;94.86;99191.81;4120913;28;20104;-71
2022/07/11 00:04:02;;;;;;;1.25;1.00;;;;;;;13.39;95.04;99193.03;4119919;28;20269;-72
2022/07/11 00:06:03;;;;;;;1.33;1.00;;;;;;;13.39;95.37;99190.25;4122099;28;20203;-72
2022/07/11 00:08:06;;;;;;;1.30;1.10;;;;;;;13.39;95.29;99190.25;4121301;28;20065;-71
2022/07/11 00:10:07;;;;;;;1.70;1.17;;;;;;;13.48;94.90;99185.19;4120813;28;20034;-71
2022/07/11 00:12:10;;;;;;;1.85;1.10;;;;;;;13.42;95.11;99198.63;4119714;28;20666;-72
2022/07/11 00:14:10;;;;;;;1.15;0.95;;;;;;;13.40;95.17;99192.63;4119683;28;20038;-71
2022/07/11 00:16:11;;;;;;;2.88;1.10;;;;;;;13.45;94.62;99194.28;4120953;28;20088;-71
2022/07/11 00:18:11;;;;;;;1.55;0.90;;;;;;;13.38;95.51;99194.19;4121238;28;20113;-71
2022/07/11 00:20:12;;;;;;;1.30;1.20;;;;;;;13.36;95.27;99193.78;4118704;28;20187;-71
2022/07/11 00:22:12;;;;;;;1.55;0.98;;;;;;;13.28;95.87;99201.25;4121006;28;20430;-71
2022/07/11 00:24:12;;;;;;;2.60;1.10;;;;;;;13.29;96.03;99196.47;4121477;28;20052;-71
2022/07/11 00:26:13;;;;;;;3.03;1.40;;;;;;;13.29;95.83;99205.63;4121060;28;20360;-72
2022/07/11 00:28:13;;;;;;;2.15;1.10;;;;;;;13.25;96.41;99190.09;4120667;28;20516;-72
2022/07/11 00:30:16;;;;;;;2.13;1.13;;;;;;;13.19;96.53;99197.91;4120333;28;20513;-71
2022/07/11 00:32:16;;;;;;;1.25;1.00;;;;;;;13.17;97.24;99194.72;4120711;28;20422;-72
2022/07/11 00:34:17;;;;;;;1.70;1.00;;;;;;;13.21;96.64;99195.59;4119459;28;20043;-72
2022/07/11 00:36:17;;;;;;;1.30;0.90;;;;;;;13.19;96.83;99179.31;4120311;28;20207;-72
2022/07/11 00:38:18;;;;;;;2.78;1.23;;;;;;;13.18;96.75;99188.00;4119154;28;20398;-72
2022/07/11 00:40:18;;;;;;;1.20;0.93;;;;;;;13.24;96.17;99188.47;4121039;28;20290;-71
2022/07/11 00:42:18;;;;;;;1.40;0.95;;;;;;;13.21;96.47;99190.03;4120730;28;20034;-71
2022/07/11 00:44:19;;;;;;;2.47;1.15;;;;;;;13.23;96.06;99184.09;4121049;28;20509;-71
2022/07/11 00:46:19;;;;;;;1.42;1.00;;;;;;;13.26;96.54;99188.91;4120942;28;20442;-72
2022/07/11 00:48:20;;;;;;;1.65;1.05;;;;;;;13.22;96.69;99186.06;4118832;28;20514;-72
2022/07/11 00:50:20;;;;;;;1.10;1.00;;;;;;;13.19;96.87;99181.25;4120272;28;20041;-71
2022/07/11 00:52:21;;;;;;;1.52;1.00;;;;;;;13.14;96.56;99185.16;4119910;28;20026;-71
2022/07/11 00:54:23;;;;;;;2.15;1.30;;;;;;;13.14;96.58;99178.78;4121095;28;20447;-72
2022/07/11 00:56:26;;;;;;;3.55;1.30;;;;;;;13.10;96.38;99183.53;4120406;28;20629;-71
2022/07/11 00:58:27;;;;;;;1.30;1.10;;;;;;;13.11;96.27;99174.81;4119413;28;20088;-71
2022/07/11 01:00:27;;;;;;;1.55;0.98;;;;;;;13.12;95.72;99179.19;4119340;28;20448;-71
2022/07/11 01:02:27;;;;;;;3.25;0.93;;;;;;;13.11;95.47;99177.59;4120073;28;20096;-72
2022/07/11 01:04:28;;;;;;;1.40;1.00;;;;;;;13.09;95.93;99176.38;4120645;28;20038;-72
2022/07/11 01:06:29;;;;;;;1.08;0.98;;;;;;;13.07;95.82;99176.72;4119752;28;20026;-72
2022/07/11 01:08:31;;;;;;;1.10;1.00;;;;;;;13.08;96.00;99174.78;4120238;28;20026;-71
2022/07/11 01:10:32;;;;;;;1.58;0.95;;;;;;;13.06;96.37;99169.56;4119207;28;20058;-71
2022/07/11 01:12:32;;;;;;;3.63;1.63;;;;;;;13.05;96.59;99172.72;4119926;28;20034;-71
2022/07/11 01:14:33;;;;;;;1.73;1.00;;;;;;;13.04;96.03;99174.72;4117674;28;20053;-71
2022/07/11 01:16:33;;;;;;;1.10;1.00;;;;;;;13.07;95.67;99167.59;4120563;28;20116;-71
2022/07/11 01:18:33;;;;;;;1.25;1.15;;;;;;;13.06;95.02;99166.00;4119536;28;20030;-71
2022/07/11 01:20:34;;;;;;;1.40;1.20;;;;;;;13.05;95.40;99169.97;4117932;28;20391;-71
2022/07/11 01:22:39;;;;;;;2.83;1.30;;;;;;;13.07;95.52;99170.38;4120660;28;20371;-71
2022/07/11 01:24:40;;;;;;;1.20;1.08;;;;;;;13.05;95.01;99172.72;4119523;28;20045;-72
2022/07/11 01:26:43;;;;;;;2.13;1.30;;;;;;;13.07;94.64;99162.03;4120160;28;20097;-72
2022/07/11 01:28:44;;;;;;;1.63;1.02;;;;;;;13.06;94.60;99157.66;4118749;28;20566;-72
2022/07/11 01:30:45;;;;;;;1.10;0.98;;;;;;;13.05;95.11;99158.84;4118323;28;20057;-72
2022/07/11 01:32:45;;;;;;;2.83;1.30;;;;;;;13.03;94.96;99155.66;4119895;28;20026;-71
2022/07/11 01:34:45;;;;;;;1.77;1.15;;;;;;;13.02;94.80;99151.28;4119824;28;20037;-71
2022/07/11 01:36:46;;;;;;;1.30;1.20;;;;;;;13.07;94.78;99162.03;4119479;28;20101;-71
2022/07/11 01:38:46;;;;;;;3.22;1.45;;;;;;;13.05;95.11;99156.88;4119030;28;20037;-72
2022/07/11 01:40:46;;;;;;;2.15;1.40;;;;;;;13.07;95.42;99159.25;4119784;28;20025;-72
2022/07/11 01:42:47;;;;;;;1.83;1.38;;;;;;;13.02;95.18;99162.38;4119385;28;20378;-72
2022/07/11 01:44:47;;;;;;;3.70;1.17;;;;;;;13.01;95.36;99158.81;4120022;28;20038;-71
2022/07/11 01:46:48;;;;;;;3.25;1.40;;;;;;;13.00;95.01;99154.44;4119482;28;20474;-71
2022/07/11 01:48:48;;;;;;;1.95;1.25;;;;;;;13.02;95.72;99154.06;4120151;28;20316;-72
2022/07/11 01:50:49;;;;;;;3.40;1.48;;;;;;;13.05;95.52;99153.28;4119399;28;20046;-72
2022/07/11 01:52:50;;;;;;;1.73;1.30;;;;;;;13.06;95.72;99152.91;4118145;28;20046;-71
2022/07/11 01:54:51;;;;;;;4.05;1.48;;;;;;;13.01;95.95;99150.47;4119348;28;20390;-72
2022/07/11 01:56:51;;;;;;;1.95;1.20;;;;;;;13.02;96.13;99151.28;4118741;28;20117;-72
2022/07/11 01:58:51;;;;;;;2.35;1.20;;;;;;;12.99;96.95;99152.00;4120245;28;20155;-71
2022/07/11 02:00:52;;;;;;;2.22;1.20;;;;;;;12.96;97.31;99156.34;4115812;28;20045;-72
2022/07/11 02:02:52;;;;;;;4.88;1.40;;;;;;;12.90;97.13;99144.78;4118966;28;20035;-72
2022/07/11 02:04:52;;;;;;;4.22;1.60;;;;;;;12.92;96.59;99149.97;4120574;28;20439;-72
2022/07/11 02:06:53;;;;;;;1.33;1.23;;;;;;;12.90;96.94;99158.66;4119065;28;20062;-72
2022/07/11 02:08:53;;;;;;;1.40;1.10;;;;;;;12.90;97.91;99152.31;4110356;28;20040;-71
2022/07/11 02:10:54;;;;;;;4.78;1.20;;;;;;;12.90;97.51;99157.84;4119379;28;20034;-71
2022/07/11 02:13:41;;;;;;;1.40;1.30;;;;;;;12.85;97.83;99167.34;4120762;28;20033;-71
2022/07/11 02:18:51;;;;;;;1.10;1.00;;;;;;;12.78;98.38;99167.22;4118583;28;20438;-71
2022/07/11 02:20:51;;;;;;;3.40;1.05;;;;;;;12.79;98.41;99168.84;4117685;28;20131;-71
2022/07/11 02:22:52;;;;;;;2.63;1.17;;;;;;;12.73;100.00;99173.09;4119592;28;20034;-72
2022/07/11 02:24:53;;;;;;;2.13;0.98;;;;;;;12.73;100.00;99172.31;4120863;28;20049;-71
2022/07/11 02:26:53;;;;;;;1.15;1.05;;;;;;;12.71;100.00;99169.91;4119447;28;20117;-71
2022/07/11 02:28:54;;;;;;;1.30;1.00;;;;;;;12.69;100.00;99168.69;4118393;28;20149;-71
2022/07/11 02:30:54;;;;;;;2.13;1.00;;;;;;;12.67;100.00;99173.81;4116988;28;20506;-71
2022/07/11 02:32:54;;;;;;;1.88;1.02;;;;;;;12.63;100.00;99169.00;4119141;28;20039;-71
2022/07/11 02:34:55;;;;;;;3.45;1.23;;;;;;;12.63;100.00;99160.69;4118477;28;20113;-71
2022/07/11 02:36:55;;;;;;;2.75;1.17;;;;;;;12.62;100.00;99164.63;4120266;28;20034;-71
2022/07/11 02:38:56;;;;;;;1.05;0.95;;;;;;;12.63;100.00;99157.91;4119522;28;20037;-71
2022/07/11 02:40:58;;;;;;;2.03;1.05;;;;;;;12.64;100.00;99155.94;4121340;28;21238;-71
2022/07/11 02:42:59;;;;;;;1.33;1.20;;;;;;;12.63;100.00;99162.66;4123139;28;20088;-71
2022/07/11 02:44:59;;;;;;;2.35;1.15;;;;;;;12.63;100.00;99159.88;4122902;28;20042;-71
2022/07/11 02:46:59;;;;;;;1.15;1.05;;;;;;;12.65;100.00;99158.31;4120586;28;20022;-71
2022/07/11 02:49:00;;;;;;;2.78;1.63;;;;;;;12.67;100.00;99157.97;4121517;28;20173;-71
2022/07/11 02:51:00;;;;;;;1.33;1.02;;;;;;;12.70;100.00;99157.22;4122687;28;20038;-71
2022/07/11 02:53:01;;;;;;;2.13;1.10;;;;;;;12.69;100.00;99157.59;4122317;28;20030;-71
2022/07/11 02:55:01;;;;;;;3.20;1.10;;;;;;;12.69;100.00;99155.63;4123115;28;20402;-71
2022/07/11 02:59:59;;;;;;;2.00;1.70;;;;;;;12.61;100.00;99171.38;4116955;28;20136;-71
2022/07/11 03:01:59;;;;;;;1.80;1.23;;;;;;;12.48;100.00;99172.75;4120175;28;20421;-71
2022/07/11 03:03:59;;;;;;;2.38;1.10;;;;;;;12.46;100.00;99169.56;4120402;28;20575;-71
2022/07/11 03:06:00;;;;;;;3.30;1.08;;;;;;;12.42;100.00;99159.59;4120060;28;20157;-72
2022/07/11 03:08:00;;;;;;;1.80;1.00;;;;;;;12.42;100.00;99163.16;4119622;28;20027;-71
2022/07/11 03:10:01;;;;;;;1.70;0.95;;;;;;;12.45;100.00;99156.06;4118337;28;20058;-71
2022/07/11 03:12:01;;;;;;;2.95;1.50;;;;;;;12.47;100.00;99162.03;4119677;28;20081;-71
2022/07/11 03:14:02;;;;;;;5.90;0.98;;;;;;;12.49;100.00;99154.13;4119629;28;20104;-72
2022/07/11 03:16:03;;;;;;;1.38;0.93;;;;;;;12.52;100.00;99159.75;4120805;28;20045;-71
2022/07/11 03:18:03;;;;;;;3.00;1.00;;;;;;;12.56;100.00;99157.00;4118851;28;20530;-71
2022/07/11 03:20:05;;;;;;;4.50;1.20;;;;;;;12.56;100.00;99162.56;4119885;28;20066;-71
2022/07/11 03:22:06;;;;;;;2.88;1.20;;;;;;;12.61;100.00;99153.91;4119927;28;20106;-71
2022/07/11 03:24:06;;;;;;;3.17;1.13;;;;;;;12.64;100.00;99153.16;4118958;28;20030;-71
2022/07/11 03:26:06;;;;;;;2.20;1.00;;;;;;;12.63;100.00;99152.34;4119884;28;20030;-71
2022/07/11 03:28:07;;;;;;;1.73;1.15;;;;;;;12.64;100.00;99153.94;4120534;28;20041;-71
2022/07/11 03:30:07;;;;;;;2.33;1.00;;;;;;;12.61;100.00;99151.13;4120458;28;20323;-71
2022/07/11 03:32:11;;;;;;;3.65;1.40;;;;;;;12.60;100.00;99150.34;4118806;28;20034;-71
2022/07/11 03:34:11;;;;;;;2.92;1.13;;;;;;;12.57;100.00;99155.81;4121018;28;20026;-71
2022/07/11 03:36:12;;;;;;;2.92;1.00;;;;;;;12.53;100.00;99150.22;4119231;28;20102;-71
2022/07/11 03:38:13;;;;;;;4.93;1.10;;;;;;;12.52;100.00;99148.63;4119679;28;20030;-71
2022/07/11 03:40:13;;;;;;;1.80;0.90;;;;;;;12.54;100.00;99148.25;4118329;28;20030;-71
2022/07/11 03:42:14;;;;;;;6.63;1.00;;;;;;;12.54;100.00;99151.81;4118677;28;20151;-71
2022/07/11 03:44:14;;;;;;;1.60;1.05;;;;;;;12.56;100.00;99162.56;4120111;28;20080;-71
2022/07/11 03:46:14;;;;;;;2.33;1.05;;;;;;;12.54;100.00;99156.56;4120441;28;20121;-72
2022/07/11 03:48:15;;;;;;;1.55;0.90;;;;;;;12.54;100.00;99151.03;4119645;28;20141;-72
2022/07/11 03:50:16;;;;;;;2.35;1.10;;;;;;;12.58;100.00;99147.13;4118464;28;20046;-71
2022/07/11 03:52:16;;;;;;;3.78;1.00;;;;;;;12.58;100.00;99160.22;4117502;28;20561;-71
2022/07/11 03:54:17;;;;;;;3.78;1.23;;;;;;;12.55;100.00;99161.75;4118356;28;20030;-71
2022/07/11 03:56:22;;;;;;;3.38;1.42;;;;;;;12.55;100.00;99161.75;4118877;28;20037;-71
2022/07/11 03:58:22;;;;;;;4.10;1.20;;;;;;;12.56;100.00;99159.78;4117442;28;20026;-71
2022/07/11 04:00:22;;;;;;;2.60;1.20;;;;;;;12.58;100.00;99152.69;4116693;28;20034;-71
2022/07/11 04:02:23;;;;;;;2.55;1.20;;;;;;;12.63;100.00;99165.44;4120498;28;20034;-71
2022/07/11 04:04:23;;;;;;;1.52;1.00;;;;;;;12.62;100.00;99159.09;4118698;28;20542;-71
2022/07/11 04:06:24;;;;;;;3.28;0.90;;;;;;;12.61;100.00;99159.47;4120074;28;20125;-71
2022/07/11 04:08:24;;;;;;;2.90;1.33;;;;;;;12.60;100.00;99153.13;4118228;28;20030;-71
2022/07/11 04:10:24;;;;;;;1.67;1.10;;;;;;;12.62;100.00;99169.38;4121257;28;20034;-71
2022/07/11 04:12:25;;;;;;;2.08;1.20;;;;;;;12.57;100.00;99170.50;4120867;28;20037;-71
2022/07/11 04:14:26;;;;;;;1.90;1.00;;;;;;;12.58;100.00;99158.25;4120167;28;20112;-71
2022/07/11 04:16:26;;;;;;;1.52;1.17;;;;;;;12.63;100.00;99144.03;4121827;28;20786;-71
2022/07/11 04:18:26;;;;;;;1.40;1.15;;;;;;;12.66;100.00;99153.59;4119894;28;20284;-71
2022/07/11 04:20:27;;;;;;;2.10;1.48;;;;;;;12.70;100.00;99154.44;4120396;28;20149;-72
2022/07/11 04:22:27;;;;;;;2.83;1.70;;;;;;;12.69;100.00;99154.81;4118412;28;20624;-72
2022/07/11 04:24:28;;;;;;;3.72;1.42;;;;;;;12.70;100.00;99148.09;4120522;28;20076;-71
2022/07/11 04:26:28;;;;;;;2.45;1.23;;;;;;;12.74;100.00;99149.72;4120865;28;20062;-71
2022/07/11 04:28:28;;;;;;;2.30;1.45;;;;;;;12.74;100.00;99151.69;4120771;28;20348;-72
2022/07/11 04:30:29;;;;;;;2.83;1.58;;;;;;;12.75;100.00;99150.53;4118530;28;20197;-71
2022/07/11 04:32:29;;;;;;;1.90;1.40;;;;;;;12.77;100.00;99145.41;4118939;28;20030;-71
2022/07/11 04:34:29;;;;;;;2.92;1.67;;;;;;;12.77;100.00;99153.72;4116938;28;20505;-71
2022/07/11 04:36:30;;;;;;;4.43;1.40;;;;;;;12.82;100.00;99154.19;4119733;28;20458;-71
2022/07/11 04:38:30;;;;;;;1.95;1.30;;;;;;;12.79;100.00;99154.94;4118088;28;20582;-71
2022/07/11 04:40:30;;;;;;;3.28;1.10;;;;;;;12.80;100.00;99145.44;4119611;28;20433;-71
2022/07/11 04:42:31;;;;;;;1.90;1.23;;;;;;;12.79;100.00;99154.94;4119611;28;20061;-71
2022/07/11 04:44:32;;;;;;;1.85;1.30;;;;;;;12.76;100.00;99158.50;4118572;28;20356;-71
2022/07/11 04:46:32;;;;;;;1.30;1.20;;;;;;;12.84;100.00;99162.97;4117176;28;20077;-71
2022/07/11 04:48:33;;;;;;;2.78;1.13;;;;;;;12.88;100.00;99154.66;4118280;28;20423;-71
2022/07/11 04:50:33;;;;;;;1.60;1.20;;;;;;;12.91;100.00;99160.28;4119075;28;20023;-71
2022/07/11 04:52:34;;;;;;;2.15;1.27;;;;;;;12.90;100.00;99155.06;4118799;28;20670;-71
2022/07/11 04:54:35;;;;;;;2.08;1.13;;;;;;;12.93;100.00;99163.47;4074333;28;20031;-71
2022/07/11 04:56:35;;;;;;;3.40;1.30;;;;;;;12.92;100.00;99163.84;4123151;28;20042;-71
2022/07/11 04:58:35;;;;;;;1.10;0.88;;;;;;;12.92;100.00;99163.84;4135134;28;20029;-71
2022/07/11 05:00:36;;;;;;;4.70;1.27;;;;;;;12.91;100.00;99165.84;4133489;28;20023;-71
2022/07/11 05:02:36;;;;;;;1.42;1.00;;;;;;;12.90;100.00;99163.41;4135294;28;20026;-71
2022/07/11 05:04:36;;;;;;;1.08;0.90;;;;;;;12.94;100.00;99167.06;4133625;28;20438;-71
2022/07/11 05:06:37;;;;;;;1.10;0.90;;;;;;;12.96;100.00;99167.47;4135635;28;20425;-71
2022/07/11 05:08:37;;;;;;;3.90;1.10;;;;;;;13.00;100.00;99170.31;4133894;28;20030;-71
2022/07/11 05:10:38;;;;;;;2.00;1.05;;;;;;;12.97;100.00;99168.25;4134531;28;20493;-71
2022/07/11 05:12:38;;;;;;;1.00;0.82;;;;;;;13.01;100.00;99171.91;4135255;28;20032;-71
2022/07/11 05:14:38;;;;;;;1.40;0.90;;;;;;;13.08;100.00;99174.78;4135042;28;20037;-71
2022/07/11 05:16:39;;;;;;;1.60;1.10;;;;;;;13.17;100.00;99178.06;4133529;28;20084;-71
2022/07/11 05:18:39;;;;;;;2.25;0.90;;;;;;;13.11;100.00;99171.22;4134935;28;20030;-71
2022/07/11 05:20:40;;;;;;;1.25;1.05;;;;;;;13.16;100.00;99176.47;4133938;28;20480;-71
2022/07/11 05:22:40;;;;;;;3.45;1.20;;;;;;;13.15;100.00;99181.19;4134640;28;20142;-71
2022/07/11 05:24:40;;;;;;;2.05;1.00;;;;;;;13.24;100.00;99185.69;4134528;28;20038;-71
2022/07/11 05:26:44;;;;;;;1.38;0.93;;;;;;;13.26;100.00;99177.78;4134327;28;20490;-71
2022/07/11 05:28:44;;;;;;;1.60;1.17;;;;;;;13.30;100.00;99178.63;4136127;28;20030;-71
2022/07/11 05:30:44;;;;;;;1.38;1.20;;;;;;;13.29;100.00;99182.59;4133892;28;20040;-71
2022/07/11 05:32:45;;;;;;;1.80;1.08;;;;;;;13.39;100.00;99185.47;4136728;28;20057;-71
2022/07/11 05:34:45;;;;;;;1.45;1.30;;;;;;;13.40;100.00;99181.53;4135363;28;20037;-71
2022/07/11 05:36:46;;;;;;;2.08;1.13;;;;;;;13.35;100.00;99181.06;4136758;28;20045;-71
2022/07/11 05:38:46;;;;;;;2.42;1.13;;;;;;;13.37;100.00;99181.50;4133318;28;20034;-71
2022/07/11 05:40:47;;;;;;;2.20;1.17;;;;;;;13.47;100.00;99181.59;4133715;28;20136;-71
2022/07/11 05:42:48;;;;;;;1.30;1.10;;;;;;;13.45;100.00;99183.16;4135837;28;20030;-71
2022/07/11 05:44:49;;;;;;;1.50;1.20;;;;;;;13.49;100.00;99187.59;4136049;28;20036;-71
2022/07/11 05:46:50;;;;;;;1.50;1.20;;;;;;;13.54;100.00;99194.78;4133666;28;20033;-71
2022/07/11 05:48:50;;;;;;;3.45;2.10;;;;;;;13.57;100.00;99190.44;4135469;28;20336;-71
2022/07/11 05:50:50;;;;;;;1.60;1.30;;;;;;;13.57;100.00;99191.25;4135288;28;20107;-71
2022/07/11 05:52:51;;;;;;;1.30;1.10;;;;;;;13.63;100.00;99186.94;4135599;28;20021;-71
2022/07/11 05:54:51;;;;;;;1.27;1.10;;;;;;;13.67;100.00;99189.78;4136287;28;20040;-71
2022/07/11 05:56:52;;;;;;;0.98;0.88;;;;;;;13.77;100.00;99205.75;4134214;28;20489;-71
2022/07/11 05:58:52;;;;;;;1.20;1.00;;;;;;;13.79;97.99;99195.06;4134108;28;20029;-71
2022/07/11 06:00:52;;;;;;;2.33;1.42;;;;;;;13.87;98.60;99199.50;4135345;28;20040;-71
2022/07/11 06:02:53;;;;;;;1.50;1.10;;;;;;;13.96;96.18;99208.31;4133461;28;20041;-71
2022/07/11 06:04:53;;;;;;;2.78;1.27;;;;;;;14.00;95.00;99191.69;4134768;28;20084;-71
2022/07/11 06:06:53;;;;;;;1.33;1.20;;;;;;;14.13;95.36;99189.41;4136573;28;20034;-71
2022/07/11 06:08:54;;;;;;;1.65;1.23;;;;;;;14.19;95.87;99187.88;4135957;28;20057;-71
2022/07/11 06:10:54;;;;;;;2.90;1.23;;;;;;;14.29;94.96;99190.72;4136479;28;20030;-71
2022/07/11 06:12:55;;;;;;;2.60;1.33;;;;;;;14.39;93.72;99193.97;4135997;28;20037;-72
2022/07/11 06:14:55;;;;;;;2.20;1.10;;;;;;;14.39;93.53;99192.00;4138328;28;20029;-71
2022/07/11 06:16:55;;;;;;;1.67;1.20;;;;;;;14.37;90.11;99186.00;4139110;28;20058;-71
2022/07/11 06:18:56;;;;;;;1.40;1.08;;;;;;;14.48;89.14;99183.34;4139026;28;20114;-71
2022/07/11 06:20:56;;;;;;;1.83;1.30;;;;;;;14.54;88.46;99188.16;4140277;28;20030;-71
2022/07/11 06:22:57;;;;;;;1.65;1.27;;;;;;;14.62;88.52;99194.56;4139608;28;20033;-71
2022/07/11 06:24:57;;;;;;;2.95;1.40;;;;;;;14.68;89.05;99183.88;4139103;28;20025;-71
2022/07/11 06:27:00;;;;;;;2.75;1.40;;;;;;;14.54;86.46;99190.94;4139811;28;20319;-71
2022/07/11 06:29:00;;;;;;;;;;;;;;;14.53;85.98;99191.34;4137958;28;20030;-71
2022/07/11 06:31:01;;;;;;;1.33;1.23;;;;;;;14.67;87.02;99190.63;4139494;28;20432;-71
2022/07/11 06:33:03;;;;;;;2.05;0.95;;;;;;;14.73;85.66;99195.47;4139143;28;20037;-71
2022/07/11 06:35:04;;;;;;;2.42;1.00;;;;;;;14.71;85.21;99197.81;4139596;28;20045;-71
2022/07/11 06:37:04;;;;;;;1.83;1.20;;;;;;;14.69;83.59;99207.75;4138435;28;20029;-71
2022/07/11 06:39:04;;;;;;;1.10;1.00;;;;;;;14.76;82.63;99205.81;4139364;28;20431;-71
2022/07/11 06:41:06;;;;;;;2.63;1.05;;;;;;;14.91;83.48;99203.13;4139858;28;20134;-71
2022/07/11 06:43:06;;;;;;;1.10;0.80;;;;;;;14.99;79.76;99213.13;4139731;28;20359;-71
2022/07/11 06:45:07;;;;;;;1.65;0.98;;;;;;;14.83;81.10;99211.44;4139065;28;20065;-71
2022/07/11 06:47:08;;;;;;;1.10;0.90;;;;;;;14.79;80.71;99218.16;4138475;28;20030;-71
2022/07/11 06:49:10;;;;;;;1.02;0.93;;;;;;;14.98;80.48;99215.09;4138274;28;20073;-71
2022/07/11 06:51:10;;;;;;;0.85;0.70;;;;;;;15.02;78.49;99212.34;4139557;28;20037;-71
2022/07/11 06:53:11;;;;;;;1.52;0.82;;;;;;;15.12;77.02;99211.56;4139539;28;20402;-71
2022/07/11 06:55:11;;;;;;;0.70;0.70;;;;;;;15.14;72.58;99209.19;4139520;28;20056;-71
2022/07/11 06:57:12;;;;;;;0.60;0.60;;;;;;;15.02;68.94;99207.56;4139071;28;20026;-71
2022/07/11 06:59:12;;;;;;;0.60;0.60;;;;;;;15.04;70.40;99210.75;4137296;28;20149;-71
2022/07/11 07:01:12;;;;;;;0.90;0.80;;;;;;;15.07;71.81;99209.19;4138876;28;20052;-71
2022/07/11 07:03:13;;;;;;;1.25;0.80;;;;;;;15.13;73.21;99200.03;4139259;28;20117;-71
2022/07/11 07:05:13;;;;;;;0.90;0.80;;;;;;;15.24;72.70;99207.66;4137659;28;20149;-71
2022/07/11 07:07:14;;;;;;;1.60;0.90;;;;;;;15.10;71.78;99209.19;4138004;28;20083;-71
2022/07/11 07:09:14;;;;;;;0.77;0.70;;;;;;;15.32;71.38;99195.34;4139408;28;20412;-71
2022/07/11 07:11:15;;;;;;;0.80;0.70;;;;;;;15.43;69.52;99187.81;4138375;28;20194;-71
2022/07/11 07:13:15;;;;;;;0.80;0.80;;;;;;;15.55;70.07;99193.03;4138886;28;20165;-71
2022/07/11 07:15:15;;;;;;;1.10;0.90;;;;;;;15.77;70.16;99204.28;4138093;28;20716;-71
2022/07/11 07:17:16;;;;;;;0.60;0.60;;;;;;;15.77;67.57;99193.13;4138501;28;20029;-71
2022/07/11 07:19:17;;;;;;;0.70;0.70;;;;;;;15.85;67.37;99195.53;4137708;28;20042;-71
2022/07/11 07:21:17;;;;;;;1.42;0.75;;;;;;;15.80;67.03;99187.53;4138253;28;20030;-71
2022/07/11 07:23:18;;;;;;;1.00;0.70;;;;;;;15.77;67.17;99181.97;4139278;28;20025;-71
2022/07/11 07:25:19;;;;;;;0.77;0.77;;;;;;;15.96;67.32;99187.94;4138767;28;20034;-72
2022/07/11 07:27:19;;;;;;;0.98;0.73;;;;;;;16.01;65.28;99195.94;4139079;28;20091;-71
2022/07/11 07:29:20;;;;;;;1.77;0.70;;;;;;;16.07;65.63;99192.78;4138391;28;20423;-71
2022/07/11 07:31:21;;;;;;;0.65;0.60;;;;;;;16.01;65.57;99193.16;4138997;28;20080;-71
2022/07/11 07:33:22;;;;;;;0.98;0.95;;;;;;;16.06;65.36;99191.97;4138371;28;20069;-71
2022/07/11 07:35:23;;;;;;;0.93;0.75;;;;;;;16.04;64.74;99191.56;4138133;28;20454;-71
2022/07/11 07:37:23;;;;;;;2.15;0.70;;;;;;;16.08;66.19;99195.16;4139547;28;20045;-71
2022/07/11 07:39:24;;;;;;;1.02;0.70;;;;;;;16.03;63.90;99195.53;4137710;28;20026;-71
2022/07/11 07:41:24;;;;;;;0.50;0.50;;;;;;;16.08;64.71;99197.94;4139161;28;20168;-71
2022/07/11 07:43:24;;;;;;;0.90;0.75;;;;;;;16.28;63.91;99204.72;4139194;28;20037;-71
2022/07/11 07:45:25;;;;;;;0.88;0.70;;;;;;;16.46;63.37;99203.91;4137825;28;20026;-71
2022/07/11 07:47:25;;;;;;;0.68;0.68;;;;;;;16.50;62.75;99199.94;4138837;28;20105;-71
2022/07/11 07:49:27;;;;;;;0.60;0.60;;;;;;;16.40;62.21;99192.38;4137892;28;20032;-71
2022/07/11 07:51:27;;;;;;;1.17;0.50;;;;;;;16.50;63.77;99194.34;4138023;28;20036;-71
2022/07/11 07:53:27;;;;;;;1.30;0.70;;;;;;;16.49;61.65;99195.56;4138655;28;20038;-71
2022/07/11 07:55:28;;;;;;;1.67;0.60;;;;;;;16.47;62.90;99203.53;4138466;28;20399;-71
2022/07/11 07:57:28;;;;;;;0.60;0.60;;;;;;;16.54;63.05;99199.94;4138696;28;20535;-71
2022/07/11 07:59:28;;;;;;;1.63;0.70;;;;;;;16.50;62.36;99202.75;4137636;28;20037;-71
2022/07/11 08:01:35;;;;;;;1.35;0.60;;;;;;;16.63;62.68;99203.09;4137901;28;20118;-71
2022/07/11 08:03:36;;;;;;;1.17;0.63;;;;;;;16.63;62.98;99205.09;4137143;28;20030;-71
2022/07/11 08:05:36;;;;;;;1.20;0.68;;;;;;;16.64;62.08;99206.72;4139275;28;20318;-71
2022/07/11 08:07:37;;;;;;;1.08;0.70;;;;;;;16.44;62.55;99203.53;4137370;28;20477;-72
2022/07/11 08:09:37;;;;;;;0.60;0.57;;;;;;;16.54;64.18;99202.72;4137519;28;20405;-71
2022/07/11 08:11:38;;;;;;;0.70;0.70;;;;;;;16.59;63.53;99199.53;4138744;28;20022;-71
2022/07/11 08:13:38;;;;;;;1.13;0.70;;;;;;;16.60;63.03;99198.34;4138532;28;20029;-71
2022/07/11 08:15:39;;;;;;;0.70;0.70;;;;;;;16.64;62.87;99198.34;4138547;28;20107;-71
2022/07/11 08:17:41;;;;;;;0.88;0.63;;;;;;;16.76;61.97;99207.13;4137328;28;20405;-71
2022/07/11 08:19:41;;;;;;;0.65;0.65;;;;;;;16.72;62.48;99194.38;4138141;28;20026;-71
2022/07/11 08:21:42;;;;;;;0.82;0.63;;;;;;;16.82;62.09;99202.72;4138363;28;20055;-71
2022/07/11 08:23:42;;;;;;;1.17;0.80;;;;;;;16.78;62.75;99206.72;4137151;28;20034;-71
2022/07/11 08:25:43;;;;;;;1.13;0.77;;;;;;;16.87;61.75;99206.28;4139099;28;20282;-71
2022/07/11 08:27:43;;;;;;;0.60;0.60;;;;;;;16.81;62.09;99203.94;4137985;28;20444;-71
2022/07/11 08:29:43;;;;;;;0.73;0.68;;;;;;;16.82;61.61;99211.09;4136959;28;20066;-71
2022/07/11 08:31:44;;;;;;;1.05;0.70;;;;;;;16.82;62.32;99199.94;4137803;28;20026;-71
2022/07/11 08:33:44;;;;;;;1.05;0.80;;;;;;;16.75;62.16;99202.72;4137255;28;20035;-71
2022/07/11 08:35:45;;;;;;;0.93;0.70;;;;;;;16.54;62.90;99211.91;4138730;28;20120;-71
2022/07/11 08:37:46;;;;;;;1.85;0.80;;;;;;;16.47;63.93;99199.97;4136422;28;20502;-71
2022/07/11 08:39:46;;;;;;;1.08;0.63;;;;;;;16.39;64.37;99206.75;4136921;28;20156;-71
2022/07/11 08:41:46;;;;;;;1.80;0.60;;;;;;;16.38;64.44;99205.91;4137738;28;20030;-71
2022/07/11 08:43:49;;;;;;;0.95;0.77;;;;;;;16.32;64.49;99217.91;4137884;28;20029;-71
2022/07/11 08:45:50;;;;;;;;;;;;;;;16.32;64.84;99217.91;4138201;28;20409;-71
2022/07/11 08:47:54;;;;;;;0.80;0.80;;;;;;;16.33;65.17;99219.50;4137692;28;19913;-71
2022/07/11 08:49:58;;;;;;;0.95;0.65;;;;;;;16.34;64.97;99218.31;4137332;28;20030;-71
2022/07/11 08:51:59;;;;;;;2.03;0.73;;;;;;;16.27;65.37;99222.69;4136358;28;20515;-71
2022/07/11 08:53:59;;;;;;;0.98;0.80;;;;;;;16.24;65.55;99217.91;4137958;28;20103;-71
2022/07/11 08:56:01;;;;;;;2.13;0.90;;;;;;;16.32;66.26;99223.50;4138404;28;20779;-71
2022/07/11 08:58:01;;;;;;;1.37;0.70;;;;;;;16.33;66.13;99214.72;4137192;28;20121;-71
2022/07/11 09:00:08;;;;;;;1.15;0.75;;;;;;;16.38;66.23;99217.09;4136661;28;20445;-71
2022/07/11 09:02:10;;;;;;;0.80;0.80;;;;;;;16.26;65.87;99228.66;4137604;28;20117;-71
2022/07/11 09:04:13;;;;;;;1.52;0.90;;;;;;;16.32;67.18;99226.28;4136307;28;20045;-71
2022/07/11 09:06:14;;;;;;;2.00;1.00;;;;;;;16.35;65.86;99217.91;4138289;28;20091;-71
2022/07/11 09:08:14;;;;;;;2.22;1.00;;;;;;;16.50;66.32;99215.91;4136538;28;20417;-71
2022/07/11 09:10:16;;;;;;;2.53;0.77;;;;;;;16.45;65.82;99224.69;4137404;28;20033;-71
2022/07/11 09:12:16;;;;;;;2.42;0.88;;;;;;;16.17;65.65;99231.84;4136765;28;20136;-71
2022/07/11 09:14:22;;;;;;;1.20;0.73;;;;;;;16.10;65.93;99229.06;4137323;28;20049;-71
2022/07/11 09:16:28;;;;;;;0.70;0.68;;;;;;;16.07;66.35;99224.28;4137746;28;20037;-71
2022/07/11 09:18:30;;;;;;;0.75;0.70;;;;;;;16.16;66.49;99232.25;4134662;28;20450;-71
2022/07/11 09:25:42;;;;;;;0.88;0.75;;;;;;;16.48;66.04;99221.09;4135317;28;20033;-71
2022/07/11 09:27:42;;;;;;;2.72;0.90;;;;;;;16.58;66.63;99231.47;4136757;28;20083;-71
2022/07/11 09:29:42;;;;;;;0.88;0.70;;;;;;;16.55;66.37;99235.06;4137024;28;20034;-72
2022/07/11 09:31:47;;;;;;;0.80;0.80;;;;;;;16.60;67.18;99242.22;4135020;28;20026;-71
2022/07/11 09:34:04;;;;;;;1.05;0.80;;;;;;;16.55;66.64;99230.28;4137346;28;20496;-71
2022/07/11 09:36:04;;;;;;;0.77;0.68;;;;;;;16.53;66.95;99240.22;4136659;28;20200;-71
2022/07/11 09:38:09;;;;;;;2.17;1.00;;;;;;;16.37;67.38;99245.41;4136745;28;20116;-72